Comfort, North Carolina
Current Conditions -  °F | °C
As of 7:15 AM on Sunday 23 Nov 2014 (Local Time) from KOAJ Reporting Station
Overcast Overcast  
Wind Chill: 46°   Ceiling: 11000
Heat Index: 46°   Visibility: 6mi
Dew Point: 43°   Wind: 0mph
Humidity: 87%   Direction: NA
Pressure: 30.25"   Gusts: NA
Location:  35.01°N, 77.49°W
Report Text: KOAJ 231215Z AUTO 00000KT 6SM OVC110 08/06 A3025 RMK AO1 P0001
Loading
Personal Weather Stations






























Interactive Weather Map New forecast layout! Learn more

10-Day Weather Forecast

Advertisements
Track Severe Weather on mobile